Weather at Chowning Heliport [CLOSED]

Public forecast

Using degrees Fahrenheit for public forecast. Weather courtesy of forecast.io.

Closest aviation weather report (METAR) to Chowning Heliport

Closest report is Albuquerque International Sunport, 9.8 nm (18.2 km) SSW.

2024/02/23 05:52 (retrieved 40 minutes ago)

KABQ 230552Z 33011KT 10SM CLR 07/M10 A3020 RMK AO2 SLP196 T00721100 10139 20072 51008

Closest aviation forecast (TAF) to Chowning Heliport

Closest forecast is Albuquerque International Sunport, 9.8 nm (18.2 km) SSW.

2024/02/23 06:22 (retrieved 10 minutes ago)

TAF KABQ 230520Z 2306/2406 36008KT P6SM FEW250 FM232000 33008KT P6SM SCT200